sensor_id;sensor_type;location;lat;lon;timestamp;pressure;altitude;pressure_sealevel;temperature;humidity
2339;BME280;1180;51.438;6.978;2023-12-29T00:02:08;99622.00;;;13.28;70.92
2339;BME280;1180;51.438;6.978;2023-12-29T00:04:34;99621.00;;;13.40;69.94
2339;BME280;1180;51.438;6.978;2023-12-29T00:06:59;99618.78;;;13.36;70.07
2339;BME280;1180;51.438;6.978;2023-12-29T00:09:27;99627.75;;;13.20;70.61
2339;BME280;1180;51.438;6.978;2023-12-29T00:11:52;99619.63;;;13.25;70.57
2339;BME280;1180;51.438;6.978;2023-12-29T00:14:19;99627.59;;;13.33;70.20
2339;BME280;1180;51.438;6.978;2023-12-29T00:16:45;99620.53;;;13.35;70.26
2339;BME280;1180;51.438;6.978;2023-12-29T00:19:11;99602.63;;;13.34;70.66
2339;BME280;1180;51.438;6.978;2023-12-29T00:21:36;99604.50;;;13.32;70.37
2339;BME280;1180;51.438;6.978;2023-12-29T00:24:02;99611.19;;;13.34;70.44
2339;BME280;1180;51.438;6.978;2023-12-29T00:26:28;99611.03;;;13.36;70.21
2339;BME280;1180;51.438;6.978;2023-12-29T00:28:54;99616.59;;;13.31;70.57
2339;BME280;1180;51.438;6.978;2023-12-29T00:31:19;99617.78;;;13.27;70.53
2339;BME280;1180;51.438;6.978;2023-12-29T00:33:44;99608.72;;;13.33;70.47
2339;BME280;1180;51.438;6.978;2023-12-29T00:36:17;99595.84;;;13.33;70.66
2339;BME280;1180;51.438;6.978;2023-12-29T00:38:42;99613.13;;;13.42;70.24
2339;BME280;1180;51.438;6.978;2023-12-29T00:41:08;99606.31;;;13.41;70.03
2339;BME280;1180;51.438;6.978;2023-12-29T00:43:34;99606.56;;;13.49;70.12
2339;BME280;1180;51.438;6.978;2023-12-29T00:46:01;99585.44;;;13.55;69.86
2339;BME280;1180;51.438;6.978;2023-12-29T00:48:27;99599.13;;;13.56;69.56
2339;BME280;1180;51.438;6.978;2023-12-29T00:50:52;99604.88;;;13.60;69.38
2339;BME280;1180;51.438;6.978;2023-12-29T00:53:17;99594.19;;;13.64;69.29
2339;BME280;1180;51.438;6.978;2023-12-29T00:55:43;99595.25;;;13.62;69.30
2339;BME280;1180;51.438;6.978;2023-12-29T00:58:08;99588.28;;;13.52;70.09
2339;BME280;1180;51.438;6.978;2023-12-29T01:00:33;99572.38;;;13.47;70.09
2339;BME280;1180;51.438;6.978;2023-12-29T01:02:58;99579.06;;;13.38;70.37
2339;BME280;1180;51.438;6.978;2023-12-29T01:05:24;99578.47;;;13.46;70.03
2339;BME280;1180;51.438;6.978;2023-12-29T01:07:49;99584.16;;;13.50;69.83
2339;BME280;1180;51.438;6.978;2023-12-29T01:10:14;99580.69;;;13.39;70.21
2339;BME280;1180;51.438;6.978;2023-12-29T01:12:40;99578.13;;;13.39;70.26
2339;BME280;1180;51.438;6.978;2023-12-29T01:15:05;99582.34;;;13.40;70.80
2339;BME280;1180;51.438;6.978;2023-12-29T01:17:31;99577.28;;;13.39;70.46
2339;BME280;1180;51.438;6.978;2023-12-29T01:19:56;99572.91;;;13.29;70.94
2339;BME280;1180;51.438;6.978;2023-12-29T01:22:22;99570.69;;;13.25;71.39
2339;BME280;1180;51.438;6.978;2023-12-29T01:24:47;99568.06;;;13.15;71.94
2339;BME280;1180;51.438;6.978;2023-12-29T01:27:12;99568.19;;;13.13;72.30
2339;BME280;1180;51.438;6.978;2023-12-29T01:29:38;99545.81;;;13.35;71.55
2339;BME280;1180;51.438;6.978;2023-12-29T01:32:03;99541.34;;;13.37;70.67
2339;BME280;1180;51.438;6.978;2023-12-29T01:34:32;99538.13;;;13.24;71.07
2339;BME280;1180;51.438;6.978;2023-12-29T01:36:59;99538.59;;;13.29;71.24
2339;BME280;1180;51.438;6.978;2023-12-29T01:39:24;99551.16;;;13.22;71.20
2339;BME280;1180;51.438;6.978;2023-12-29T01:41:50;99555.03;;;13.17;71.90
2339;BME280;1180;51.438;6.978;2023-12-29T01:44:20;99548.59;;;13.22;72.26
2339;BME280;1180;51.438;6.978;2023-12-29T01:46:47;99554.53;;;13.23;72.75
2339;BME280;1180;51.438;6.978;2023-12-29T01:49:15;99555.53;;;13.43;71.98
2339;BME280;1180;51.438;6.978;2023-12-29T01:51:42;99548.34;;;13.47;72.16
2339;BME280;1180;51.438;6.978;2023-12-29T01:54:08;99549.84;;;13.28;72.43
2339;BME280;1180;51.438;6.978;2023-12-29T01:56:35;99542.16;;;13.17;73.27
2339;BME280;1180;51.438;6.978;2023-12-29T01:59:01;99545.56;;;13.17;73.95
2339;BME280;1180;51.438;6.978;2023-12-29T02:01:27;99538.47;;;13.09;74.05
2339;BME280;1180;51.438;6.978;2023-12-29T02:03:52;99539.41;;;13.08;74.84
2339;BME280;1180;51.438;6.978;2023-12-29T02:06:19;99543.25;;;13.14;74.71
2339;BME280;1180;51.438;6.978;2023-12-29T02:08:46;99544.81;;;13.05;76.32
2339;BME280;1180;51.438;6.978;2023-12-29T02:11:12;99539.72;;;13.15;77.21
2339;BME280;1180;51.438;6.978;2023-12-29T02:13:38;99553.84;;;13.21;78.15
2339;BME280;1180;51.438;6.978;2023-12-29T02:16:10;99563.28;;;13.10;80.16
2339;BME280;1180;51.438;6.978;2023-12-29T02:18:38;99560.25;;;13.05;81.65
2339;BME280;1180;51.438;6.978;2023-12-29T02:21:05;99550.75;;;13.06;82.10
2339;BME280;1180;51.438;6.978;2023-12-29T02:23:31;99561.81;;;12.96;83.08
2339;BME280;1180;51.438;6.978;2023-12-29T02:26:01;99556.56;;;12.86;84.31
2339;BME280;1180;51.438;6.978;2023-12-29T02:28:33;99555.34;;;12.81;84.61
2339;BME280;1180;51.438;6.978;2023-12-29T02:31:15;99553.47;;;12.71;85.23
2339;BME280;1180;51.438;6.978;2023-12-29T02:33:42;99546.03;;;12.57;86.05
2339;BME280;1180;51.438;6.978;2023-12-29T02:36:10;99552.81;;;12.58;86.73
2339;BME280;1180;51.438;6.978;2023-12-29T02:38:36;99548.41;;;12.49;87.38
2339;BME280;1180;51.438;6.978;2023-12-29T02:41:02;99540.00;;;12.47;88.31
2339;BME280;1180;51.438;6.978;2023-12-29T02:43:27;99539.75;;;12.50;88.16
2339;BME280;1180;51.438;6.978;2023-12-29T02:45:52;99541.94;;;12.54;87.72
2339;BME280;1180;51.438;6.978;2023-12-29T02:48:18;99535.16;;;12.53;87.46
2339;BME280;1180;51.438;6.978;2023-12-29T02:50:43;99535.16;;;12.53;87.61
2339;BME280;1180;51.438;6.978;2023-12-29T02:53:08;99536.09;;;12.52;88.17
2339;BME280;1180;51.438;6.978;2023-12-29T02:55:34;99525.00;;;12.52;87.43
2339;BME280;1180;51.438;6.978;2023-12-29T02:57:59;99515.09;;;12.36;88.91
2339;BME280;1180;51.438;6.978;2023-12-29T03:00:25;99504.22;;;12.44;88.75
2339;BME280;1180;51.438;6.978;2023-12-29T03:02:50;99508.03;;;12.49;88.15
2339;BME280;1180;51.438;6.978;2023-12-29T03:05:15;99521.03;;;12.48;88.58
2339;BME280;1180;51.438;6.978;2023-12-29T03:07:41;99505.13;;;12.42;88.19
2339;BME280;1180;51.438;6.978;2023-12-29T03:10:07;99516.88;;;12.24;89.56
2339;BME280;1180;51.438;6.978;2023-12-29T03:12:32;99508.16;;;12.48;88.40
2339;BME280;1180;51.438;6.978;2023-12-29T03:14:58;99509.81;;;12.49;87.52
2339;BME280;1180;51.438;6.978;2023-12-29T03:17:23;99511.69;;;12.35;88.80
2339;BME280;1180;51.438;6.978;2023-12-29T03:19:49;99526.44;;;12.45;88.30
2339;BME280;1180;51.438;6.978;2023-12-29T03:22:14;99523.13;;;12.42;88.19
2339;BME280;1180;51.438;6.978;2023-12-29T03:24:40;99517.59;;;12.59;87.09
2339;BME280;1180;51.438;6.978;2023-12-29T03:27:07;99517.53;;;12.49;87.71
2339;BME280;1180;51.438;6.978;2023-12-29T03:29:32;99526.75;;;12.51;87.55
2339;BME280;1180;51.438;6.978;2023-12-29T03:31:57;99517.97;;;12.54;87.54
2339;BME280;1180;51.438;6.978;2023-12-29T03:34:23;99524.84;;;12.53;87.24
2339;BME280;1180;51.438;6.978;2023-12-29T03:36:48;99525.31;;;12.59;87.03
2339;BME280;1180;51.438;6.978;2023-12-29T03:39:13;99514.22;;;12.58;86.93
2339;BME280;1180;51.438;6.978;2023-12-29T03:41:39;99522.53;;;12.50;87.38
2339;BME280;1180;51.438;6.978;2023-12-29T03:44:04;99517.63;;;12.47;87.24
2339;BME280;1180;51.438;6.978;2023-12-29T03:46:31;99504.59;;;12.60;86.86
2339;BME280;1180;51.438;6.978;2023-12-29T03:48:56;99505.50;;;12.38;86.98
2339;BME280;1180;51.438;6.978;2023-12-29T03:51:22;99494.38;;;12.49;87.24
2339;BME280;1180;51.438;6.978;2023-12-29T03:53:47;99507.88;;;12.62;86.30
2339;BME280;1180;51.438;6.978;2023-12-29T03:56:14;99501.00;;;12.63;85.93
2339;BME280;1180;51.438;6.978;2023-12-29T03:58:41;99510.59;;;12.49;86.33
2339;BME280;1180;51.438;6.978;2023-12-29T04:01:10;99509.31;;;12.55;86.30
2339;BME280;1180;51.438;6.978;2023-12-29T04:03:36;99509.06;;;12.58;85.28
2339;BME280;1180;51.438;6.978;2023-12-29T04:06:02;99507.44;;;12.57;85.28
2339;BME280;1180;51.438;6.978;2023-12-29T04:08:27;99503.72;;;12.50;85.65
2339;BME280;1180;51.438;6.978;2023-12-29T04:10:53;99497.94;;;12.57;84.52
2339;BME280;1180;51.438;6.978;2023-12-29T04:13:18;99506.13;;;12.63;84.36
2339;BME280;1180;51.438;6.978;2023-12-29T04:15:43;99503.50;;;12.74;84.38
2339;BME280;1180;51.438;6.978;2023-12-29T04:18:09;99498.09;;;12.77;83.55
2339;BME280;1180;51.438;6.978;2023-12-29T04:20:34;99495.03;;;12.83;83.51
2339;BME280;1180;51.438;6.978;2023-12-29T04:22:59;99493.22;;;12.74;83.96
2339;BME280;1180;51.438;6.978;2023-12-29T04:25:24;99491.69;;;12.71;83.42
2339;BME280;1180;51.438;6.978;2023-12-29T04:27:50;99485.13;;;12.79;82.47
2339;BME280;1180;51.438;6.978;2023-12-29T04:30:15;99499.25;;;12.84;82.28
2339;BME280;1180;51.438;6.978;2023-12-29T04:32:40;99484.44;;;12.77;82.38
2339;BME280;1180;51.438;6.978;2023-12-29T04:35:06;99494.66;;;12.88;82.93
2339;BME280;1180;51.438;6.978;2023-12-29T04:37:31;99492.78;;;12.90;81.24
2339;BME280;1180;51.438;6.978;2023-12-29T04:39:57;99491.84;;;12.91;81.97
2339;BME280;1180;51.438;6.978;2023-12-29T04:42:22;99498.78;;;12.79;82.20
2339;BME280;1180;51.438;6.978;2023-12-29T04:44:48;99513.75;;;12.85;82.59
2339;BME280;1180;51.438;6.978;2023-12-29T04:47:13;99515.13;;;12.90;81.99
2339;BME280;1180;51.438;6.978;2023-12-29T04:49:38;99515.53;;;12.74;82.92
2339;BME280;1180;51.438;6.978;2023-12-29T04:52:04;99518.63;;;12.67;83.74
2339;BME280;1180;51.438;6.978;2023-12-29T04:54:29;99528.56;;;12.72;83.52
2339;BME280;1180;51.438;6.978;2023-12-29T04:56:54;99521.97;;;12.79;83.81
2339;BME280;1180;51.438;6.978;2023-12-29T04:59:20;99515.75;;;12.82;83.03
2339;BME280;1180;51.438;6.978;2023-12-29T05:01:45;99514.50;;;12.76;83.41
2339;BME280;1180;51.438;6.978;2023-12-29T05:04:11;99511.22;;;12.74;83.63
2339;BME280;1180;51.438;6.978;2023-12-29T05:06:36;99521.28;;;12.77;82.76
2339;BME280;1180;51.438;6.978;2023-12-29T05:09:01;99516.88;;;12.56;83.57
2339;BME280;1180;51.438;6.978;2023-12-29T05:11:27;99516.47;;;12.73;83.00
2339;BME280;1180;51.438;6.978;2023-12-29T05:13:53;99526.75;;;12.84;82.88
2339;BME280;1180;51.438;6.978;2023-12-29T05:16:18;99513.38;;;12.90;82.02
2339;BME280;1180;51.438;6.978;2023-12-29T05:18:43;99520.66;;;12.85;81.33
2339;BME280;1180;51.438;6.978;2023-12-29T05:21:17;99537.31;;;12.69;81.61
2339;BME280;1180;51.438;6.978;2023-12-29T05:23:43;99531.47;;;12.67;81.86
2339;BME280;1180;51.438;6.978;2023-12-29T05:26:09;99514.75;;;12.73;81.47
2339;BME280;1180;51.438;6.978;2023-12-29T05:28:34;99535.28;;;12.84;81.43
2339;BME280;1180;51.438;6.978;2023-12-29T05:30:59;99525.50;;;12.99;80.11
2339;BME280;1180;51.438;6.978;2023-12-29T05:33:28;99531.50;;;13.00;79.56
2339;BME280;1180;51.438;6.978;2023-12-29T05:35:54;99526.00;;;12.93;79.51
2339;BME280;1180;51.438;6.978;2023-12-29T05:38:19;99536.50;;;13.02;79.38
2339;BME280;1180;51.438;6.978;2023-12-29T05:40:44;99528.84;;;12.90;79.09
2339;BME280;1180;51.438;6.978;2023-12-29T05:43:10;99525.00;;;12.84;79.19
2339;BME280;1180;51.438;6.978;2023-12-29T05:45:35;99525.69;;;12.86;79.65
2339;BME280;1180;51.438;6.978;2023-12-29T05:48:00;99522.25;;;12.97;78.76
2339;BME280;1180;51.438;6.978;2023-12-29T05:50:26;99515.59;;;12.95;78.82
2339;BME280;1180;51.438;6.978;2023-12-29T05:52:51;99523.25;;;12.85;79.21
2339;BME280;1180;51.438;6.978;2023-12-29T05:55:18;99522.56;;;12.83;79.23
2339;BME280;1180;51.438;6.978;2023-12-29T05:57:43;99522.63;;;12.93;78.45
2339;BME280;1180;51.438;6.978;2023-12-29T06:00:09;99527.91;;;12.91;78.50
2339;BME280;1180;51.438;6.978;2023-12-29T06:02:40;99530.97;;;12.85;78.65
2339;BME280;1180;51.438;6.978;2023-12-29T06:05:06;99525.69;;;12.86;78.62
2339;BME280;1180;51.438;6.978;2023-12-29T06:07:31;99534.56;;;12.94;78.50
2339;BME280;1180;51.438;6.978;2023-12-29T06:09:57;99530.28;;;12.83;78.46
2339;BME280;1180;51.438;6.978;2023-12-29T06:12:22;99525.47;;;12.78;79.15
2339;BME280;1180;51.438;6.978;2023-12-29T06:14:47;99544.16;;;12.92;78.63
2339;BME280;1180;51.438;6.978;2023-12-29T06:17:13;99529.53;;;12.92;77.72
2339;BME280;1180;51.438;6.978;2023-12-29T06:19:39;99534.69;;;12.92;78.36
2339;BME280;1180;51.438;6.978;2023-12-29T06:22:04;99536.97;;;12.74;78.74
2339;BME280;1180;51.438;6.978;2023-12-29T06:24:30;99533.09;;;12.80;79.39
2339;BME280;1180;51.438;6.978;2023-12-29T06:26:55;99538.31;;;12.90;78.68
2339;BME280;1180;51.438;6.978;2023-12-29T06:29:21;99535.97;;;12.86;78.67
2339;BME280;1180;51.438;6.978;2023-12-29T06:31:46;99544.28;;;12.90;78.14
2339;BME280;1180;51.438;6.978;2023-12-29T06:34:11;99543.91;;;12.95;77.70
2339;BME280;1180;51.438;6.978;2023-12-29T06:36:37;99537.31;;;12.81;78.07
2339;BME280;1180;51.438;6.978;2023-12-29T06:39:02;99537.34;;;12.91;77.63
2339;BME280;1180;51.438;6.978;2023-12-29T06:41:27;99528.22;;;12.98;77.73
2339;BME280;1180;51.438;6.978;2023-12-29T06:43:53;99539.72;;;12.94;77.43
2339;BME280;1180;51.438;6.978;2023-12-29T06:46:18;99531.28;;;12.92;77.22
2339;BME280;1180;51.438;6.978;2023-12-29T06:48:43;99529.28;;;12.95;77.34
2339;BME280;1180;51.438;6.978;2023-12-29T06:51:09;99532.97;;;13.03;77.49
2339;BME280;1180;51.438;6.978;2023-12-29T06:53:36;99535.13;;;13.19;76.75
2339;BME280;1180;51.438;6.978;2023-12-29T06:56:01;99526.44;;;13.20;76.21
2339;BME280;1180;51.438;6.978;2023-12-29T06:58:27;99532.50;;;13.30;75.34
2339;BME280;1180;51.438;6.978;2023-12-29T07:00:52;99531.16;;;13.36;75.30
2339;BME280;1180;51.438;6.978;2023-12-29T07:03:17;99511.81;;;13.20;76.03
2339;BME280;1180;51.438;6.978;2023-12-29T07:05:43;99515.88;;;13.23;76.02
2339;BME280;1180;51.438;6.978;2023-12-29T07:08:08;99520.03;;;13.35;75.13
2339;BME280;1180;51.438;6.978;2023-12-29T07:10:34;99515.53;;;13.27;75.66
2339;BME280;1180;51.438;6.978;2023-12-29T07:12:59;99505.22;;;13.27;75.47
2339;BME280;1180;51.438;6.978;2023-12-29T07:15:24;99511.44;;;13.25;75.67
2339;BME280;1180;51.438;6.978;2023-12-29T07:17:50;99516.78;;;13.33;76.44
2339;BME280;1180;51.438;6.978;2023-12-29T07:20:15;99511.31;;;13.26;77.53
2339;BME280;1180;51.438;6.978;2023-12-29T07:22:40;99511.56;;;13.23;78.37
2339;BME280;1180;51.438;6.978;2023-12-29T07:25:06;99505.09;;;13.29;78.29
2339;BME280;1180;51.438;6.978;2023-12-29T07:27:31;99509.34;;;13.19;79.38
2339;BME280;1180;51.438;6.978;2023-12-29T07:29:57;99507.34;;;13.22;80.05
2339;BME280;1180;51.438;6.978;2023-12-29T07:32:23;99523.63;;;13.23;80.32
2339;BME280;1180;51.438;6.978;2023-12-29T07:34:48;99513.13;;;13.14;81.23
2339;BME280;1180;51.438;6.978;2023-12-29T07:37:14;99512.38;;;13.24;81.00
2339;BME280;1180;51.438;6.978;2023-12-29T07:39:39;99513.72;;;13.18;81.51
2339;BME280;1180;51.438;6.978;2023-12-29T07:42:05;99498.69;;;13.23;82.41
2339;BME280;1180;51.438;6.978;2023-12-29T07:44:30;99500.44;;;13.23;82.01
2339;BME280;1180;51.438;6.978;2023-12-29T07:46:58;99493.63;;;13.12;83.28
2339;BME280;1180;51.438;6.978;2023-12-29T07:49:24;99494.31;;;13.14;83.09
2339;BME280;1180;51.438;6.978;2023-12-29T07:51:50;99489.59;;;12.98;83.94
2339;BME280;1180;51.438;6.978;2023-12-29T07:54:15;99486.69;;;12.91;84.36
2339;BME280;1180;51.438;6.978;2023-12-29T07:56:41;99498.13;;;12.98;83.64
2339;BME280;1180;51.438;6.978;2023-12-29T07:59:06;99498.88;;;12.89;84.51
2339;BME280;1180;51.438;6.978;2023-12-29T08:01:31;99497.16;;;12.99;83.78
2339;BME280;1180;51.438;6.978;2023-12-29T08:03:57;99501.28;;;13.02;83.74
2339;BME280;1180;51.438;6.978;2023-12-29T08:06:22;99513.53;;;13.10;82.74
2339;BME280;1180;51.438;6.978;2023-12-29T08:08:48;99495.72;;;13.07;83.24
2339;BME280;1180;51.438;6.978;2023-12-29T08:11:16;99508.56;;;13.18;82.68
2339;BME280;1180;51.438;6.978;2023-12-29T08:13:47;99508.81;;;13.15;82.75
2339;BME280;1180;51.438;6.978;2023-12-29T08:16:13;99517.59;;;13.12;83.59
2339;BME280;1180;51.438;6.978;2023-12-29T08:18:38;99518.53;;;13.11;83.89
2339;BME280;1180;51.438;6.978;2023-12-29T08:21:03;99529.34;;;13.05;83.99
2339;BME280;1180;51.438;6.978;2023-12-29T08:23:29;99528.22;;;12.98;84.46
2339;BME280;1180;51.438;6.978;2023-12-29T08:25:59;99520.97;;;12.92;85.12
2339;BME280;1180;51.438;6.978;2023-12-29T08:28:25;99518.34;;;13.03;84.81
2339;BME280;1180;51.438;6.978;2023-12-29T08:30:50;99519.81;;;12.96;84.70
2339;BME280;1180;51.438;6.978;2023-12-29T08:33:16;99520.78;;;12.83;85.87
2339;BME280;1180;51.438;6.978;2023-12-29T08:35:41;99521.19;;;13.00;85.58
2339;BME280;1180;51.438;6.978;2023-12-29T08:38:07;99508.94;;;12.92;86.11
2339;BME280;1180;51.438;6.978;2023-12-29T08:40:32;99506.59;;;12.89;86.64
2339;BME280;1180;51.438;6.978;2023-12-29T08:42:58;99494.31;;;12.93;86.52
2339;BME280;1180;51.438;6.978;2023-12-29T08:45:23;99509.88;;;12.91;86.25
2339;BME280;1180;51.438;6.978;2023-12-29T08:47:49;99497.00;;;12.91;86.62
2339;BME280;1180;51.438;6.978;2023-12-29T08:50:14;99494.53;;;12.90;86.73
2339;BME280;1180;51.438;6.978;2023-12-29T08:52:40;99495.78;;;12.95;86.67
2339;BME280;1180;51.438;6.978;2023-12-29T08:55:06;99499.47;;;12.93;86.41
2339;BME280;1180;51.438;6.978;2023-12-29T08:57:31;99499.13;;;12.86;85.78
2339;BME280;1180;51.438;6.978;2023-12-29T08:59:57;99515.34;;;12.98;86.09
2339;BME280;1180;51.438;6.978;2023-12-29T09:02:22;99518.34;;;13.03;86.27
2339;BME280;1180;51.438;6.978;2023-12-29T09:04:47;99518.88;;;12.97;86.29
2339;BME280;1180;51.438;6.978;2023-12-29T09:07:13;99517.59;;;12.91;86.74
2339;BME280;1180;51.438;6.978;2023-12-29T09:09:38;99525.38;;;12.80;86.95
2339;BME280;1180;51.438;6.978;2023-12-29T09:12:04;99520.75;;;12.95;87.05
2339;BME280;1180;51.438;6.978;2023-12-29T09:14:30;99520.06;;;12.93;87.11
2339;BME280;1180;51.438;6.978;2023-12-29T09:16:57;99522.75;;;12.91;87.58
2339;BME280;1180;51.438;6.978;2023-12-29T09:19:23;99505.72;;;12.79;88.20
2339;BME280;1180;51.438;6.978;2023-12-29T09:21:48;99502.19;;;12.80;89.29
2339;BME280;1180;51.438;6.978;2023-12-29T09:24:13;99486.75;;;13.01;90.56
2339;BME280;1180;51.438;6.978;2023-12-29T09:26:39;99491.59;;;13.15;89.34
2339;BME280;1180;51.438;6.978;2023-12-29T09:29:04;99498.00;;;13.42;87.33
2339;BME280;1180;51.438;6.978;2023-12-29T09:31:29;99513.88;;;13.26;86.97
2339;BME280;1180;51.438;6.978;2023-12-29T09:33:54;99483.66;;;13.28;86.33
2339;BME280;1180;51.438;6.978;2023-12-29T09:36:21;99513.03;;;13.16;86.79
2339;BME280;1180;51.438;6.978;2023-12-29T09:38:47;99521.25;;;13.10;86.67
2339;BME280;1180;51.438;6.978;2023-12-29T09:41:14;99529.41;;;13.15;87.32
2339;BME280;1180;51.438;6.978;2023-12-29T09:43:40;99535.78;;;13.11;87.20
2339;BME280;1180;51.438;6.978;2023-12-29T09:46:08;99550.03;;;13.15;86.63
2339;BME280;1180;51.438;6.978;2023-12-29T09:48:34;99545.69;;;13.15;86.83
2339;BME280;1180;51.438;6.978;2023-12-29T09:51:02;99547.50;;;13.04;87.79
2339;BME280;1180;51.438;6.978;2023-12-29T09:53:28;99537.19;;;13.04;88.97
2339;BME280;1180;51.438;6.978;2023-12-29T09:55:56;99555.66;;;13.09;88.85
2339;BME280;1180;51.438;6.978;2023-12-29T09:58:23;99544.44;;;13.10;89.43
2339;BME280;1180;51.438;6.978;2023-12-29T10:00:51;99547.94;;;13.09;89.36
2339;BME280;1180;51.438;6.978;2023-12-29T10:03:16;99541.41;;;13.05;89.86
2339;BME280;1180;51.438;6.978;2023-12-29T10:05:43;99553.06;;;12.88;91.65
2339;BME280;1180;51.438;6.978;2023-12-29T10:08:12;99551.19;;;12.90;92.63
2339;BME280;1180;51.438;6.978;2023-12-29T10:10:39;99529.41;;;12.94;92.70
2339;BME280;1180;51.438;6.978;2023-12-29T10:13:09;99520.78;;;12.83;93.56
2339;BME280;1180;51.438;6.978;2023-12-29T10:16:27;99530.09;;;12.96;92.77
2339;BME280;1180;51.438;6.978;2023-12-29T10:21:29;99505.03;;;12.77;94.33
2339;BME280;1180;51.438;6.978;2023-12-29T10:24:03;99517.59;;;12.59;95.55
2339;BME280;1180;51.438;6.978;2023-12-29T10:26:30;99532.84;;;12.83;93.92
2339;BME280;1180;51.438;6.978;2023-12-29T10:28:57;99521.34;;;12.66;95.10
2339;BME280;1180;51.438;6.978;2023-12-29T10:31:24;99497.06;;;12.80;94.79
2339;BME280;1180;51.438;6.978;2023-12-29T10:33:49;99504.78;;;12.80;95.45
2339;BME280;1180;51.438;6.978;2023-12-29T10:36:16;99532.72;;;12.84;94.79
2339;BME280;1180;51.438;6.978;2023-12-29T10:38:42;99538.56;;;12.86;95.52
2339;BME280;1180;51.438;6.978;2023-12-29T10:41:18;99544.19;;;12.80;95.41
2339;BME280;1180;51.438;6.978;2023-12-29T10:43:45;99548.78;;;12.77;95.63
2339;BME280;1180;51.438;6.978;2023-12-29T10:46:17;99537.06;;;12.84;95.75
2339;BME280;1180;51.438;6.978;2023-12-29T10:48:42;99532.59;;;12.86;96.61
2339;BME280;1180;51.438;6.978;2023-12-29T10:51:08;99539.13;;;12.90;96.24
2339;BME280;1180;51.438;6.978;2023-12-29T10:53:35;99522.63;;;12.93;95.64
2339;BME280;1180;51.438;6.978;2023-12-29T10:56:01;99538.28;;;13.01;95.70
2339;BME280;1180;51.438;6.978;2023-12-29T10:58:27;99539.28;;;13.10;94.76
2339;BME280;1180;51.438;6.978;2023-12-29T11:00:58;99536.13;;;13.06;93.61
2339;BME280;1180;51.438;6.978;2023-12-29T11:03:24;99538.28;;;13.01;93.59
2339;BME280;1180;51.438;6.978;2023-12-29T11:05:50;99532.88;;;13.04;93.38
2339;BME280;1180;51.438;6.978;2023-12-29T11:08:17;99530.47;;;13.12;92.76
2339;BME280;1180;51.438;6.978;2023-12-29T11:10:43;99540.84;;;13.22;92.57
2339;BME280;1180;51.438;6.978;2023-12-29T11:13:13;99539.28;;;13.31;92.32
2339;BME280;1180;51.438;6.978;2023-12-29T11:15:42;99536.75;;;13.20;93.47
2339;BME280;1180;51.438;6.978;2023-12-29T11:18:12;99543.19;;;13.25;93.03
2339;BME280;1180;51.438;6.978;2023-12-29T11:20:38;99547.91;;;13.20;93.69
2339;BME280;1180;51.438;6.978;2023-12-29T11:23:05;99544.91;;;13.25;93.85
2339;BME280;1180;51.438;6.978;2023-12-29T11:25:32;99541.47;;;13.36;93.11
2339;BME280;1180;51.438;6.978;2023-12-29T11:27:58;99537.50;;;13.43;92.48
2339;BME280;1180;51.438;6.978;2023-12-29T11:30:24;99543.66;;;13.40;92.65
2339;BME280;1180;51.438;6.978;2023-12-29T11:33:00;99533.38;;;13.40;92.72
2339;BME280;1180;51.438;6.978;2023-12-29T11:35:32;99533.72;;;13.47;92.35
2339;BME280;1180;51.438;6.978;2023-12-29T11:41:08;99539.16;;;13.33;92.86
2339;BME280;1180;51.438;6.978;2023-12-29T11:43:35;99534.91;;;13.43;92.42
2339;BME280;1180;51.438;6.978;2023-12-29T11:46:00;99530.88;;;13.50;92.00
2339;BME280;1180;51.438;6.978;2023-12-29T11:48:57;99525.84;;;13.49;91.48
2339;BME280;1180;51.438;6.978;2023-12-29T11:51:41;99535.34;;;13.48;90.68
2339;BME280;1180;51.438;6.978;2023-12-29T11:54:08;99532.00;;;13.36;90.96
2339;BME280;1180;51.438;6.978;2023-12-29T11:56:39;99532.78;;;13.37;91.48
2339;BME280;1180;51.438;6.978;2023-12-29T12:01:39;99520.31;;;13.32;90.30
2339;BME280;1180;51.438;6.978;2023-12-29T12:04:04;99515.84;;;13.55;89.73
2339;BME280;1180;51.438;6.978;2023-12-29T12:06:49;99510.94;;;13.52;89.79
2339;BME280;1180;51.438;6.978;2023-12-29T12:09:16;99500.53;;;13.64;89.72
2339;BME280;1180;51.438;6.978;2023-12-29T12:11:43;99500.84;;;13.70;88.57
2339;BME280;1180;51.438;6.978;2023-12-29T12:14:08;99492.00;;;13.73;89.20
2339;BME280;1180;51.438;6.978;2023-12-29T12:16:46;99499.38;;;13.78;88.91
2339;BME280;1180;51.438;6.978;2023-12-29T12:19:12;99493.25;;;13.79;88.96
2339;BME280;1180;51.438;6.978;2023-12-29T12:21:38;99482.13;;;13.68;89.31
2339;BME280;1180;51.438;6.978;2023-12-29T12:24:04;99496.63;;;13.69;90.41
2339;BME280;1180;51.438;6.978;2023-12-29T12:26:33;99510.84;;;13.64;90.69
2339;BME280;1180;51.438;6.978;2023-12-29T12:28:59;99494.56;;;13.42;92.56
2339;BME280;1180;51.438;6.978;2023-12-29T12:31:25;99506.22;;;13.36;93.86
2339;BME280;1180;51.438;6.978;2023-12-29T12:33:58;99505.97;;;13.39;95.00
2339;BME280;1180;51.438;6.978;2023-12-29T12:36:26;99523.16;;;13.50;94.24
2339;BME280;1180;51.438;6.978;2023-12-29T12:38:56;99511.56;;;13.45;94.39
2339;BME280;1180;51.438;6.978;2023-12-29T12:41:22;99511.31;;;13.48;94.63
2339;BME280;1180;51.438;6.978;2023-12-29T12:44:14;99508.31;;;13.42;94.75
2339;BME280;1180;51.438;6.978;2023-12-29T12:49:12;99495.22;;;13.34;94.76
2339;BME280;1180;51.438;6.978;2023-12-29T12:51:38;99497.63;;;13.26;95.10
2339;BME280;1180;51.438;6.978;2023-12-29T12:54:04;99495.44;;;13.21;95.60
2339;BME280;1180;51.438;6.978;2023-12-29T12:56:30;99498.25;;;13.18;96.00
2339;BME280;1180;51.438;6.978;2023-12-29T12:59:01;99497.16;;;13.21;96.14
2339;BME280;1180;51.438;6.978;2023-12-29T13:01:28;99499.94;;;13.29;96.00
2339;BME280;1180;51.438;6.978;2023-12-29T13:03:54;99492.38;;;13.37;95.57
2339;BME280;1180;51.438;6.978;2023-12-29T13:06:20;99487.59;;;13.33;95.10
2339;BME280;1180;51.438;6.978;2023-12-29T13:08:48;99481.78;;;13.31;96.07
2339;BME280;1180;51.438;6.978;2023-12-29T13:11:19;99484.50;;;13.29;95.40
2339;BME280;1180;51.438;6.978;2023-12-29T13:13:47;99488.56;;;13.32;95.00
2339;BME280;1180;51.438;6.978;2023-12-29T13:16:12;99477.66;;;13.18;95.90
2339;BME280;1180;51.438;6.978;2023-12-29T13:18:40;99483.59;;;13.19;96.08
2339;BME280;1180;51.438;6.978;2023-12-29T13:21:06;99482.72;;;13.29;96.34
2339;BME280;1180;51.438;6.978;2023-12-29T13:23:32;99473.56;;;13.15;96.34
2339;BME280;1180;51.438;6.978;2023-12-29T13:26:07;99471.81;;;13.16;96.63
2339;BME280;1180;51.438;6.978;2023-12-29T13:28:33;99465.66;;;13.07;97.86
2339;BME280;1180;51.438;6.978;2023-12-29T13:31:00;99468.41;;;13.15;97.59